sensor_id;sensor_type;location;lat;lon;timestamp;P1;durP1;ratioP1;P2;durP2;ratioP2
9767;SDS011;4923;52.520;13.494;2023-11-21T00:00:27;11.80;;;7.75;;
9767;SDS011;4923;52.520;13.494;2023-11-21T00:03:15;9.50;;;6.82;;
9767;SDS011;4923;52.520;13.494;2023-11-21T00:06:02;8.02;;;7.22;;
9767;SDS011;4923;52.520;13.494;2023-11-21T00:08:50;10.55;;;7.65;;
9767;SDS011;4923;52.520;13.494;2023-11-21T00:11:36;11.73;;;8.38;;
9767;SDS011;4923;52.520;13.494;2023-11-21T00:14:23;18.08;;;9.20;;
9767;SDS011;4923;52.520;13.494;2023-11-21T00:17:10;16.80;;;10.57;;
9767;SDS011;4923;52.520;13.494;2023-11-21T00:19:58;18.33;;;9.18;;
9767;SDS011;4923;52.520;13.494;2023-11-21T00:22:45;21.10;;;11.38;;
9767;SDS011;4923;52.520;13.494;2023-11-21T00:25:33;30.00;;;13.45;;
9767;SDS011;4923;52.520;13.494;2023-11-21T00:28:19;22.25;;;12.65;;
9767;SDS011;4923;52.520;13.494;2023-11-21T00:31:07;28.83;;;13.05;;
9767;SDS011;4923;52.520;13.494;2023-11-21T00:33:54;30.63;;;14.25;;
9767;SDS011;4923;52.520;13.494;2023-11-21T00:36:42;26.98;;;12.50;;
9767;SDS011;4923;52.520;13.494;2023-11-21T00:39:29;27.77;;;12.65;;
9767;SDS011;4923;52.520;13.494;2023-11-21T00:42:18;30.02;;;14.40;;
9767;SDS011;4923;52.520;13.494;2023-11-21T00:45:08;31.73;;;14.38;;
9767;SDS011;4923;52.520;13.494;2023-11-21T00:47:55;30.60;;;16.10;;
9767;SDS011;4923;52.520;13.494;2023-11-21T00:50:43;33.53;;;16.23;;
9767;SDS011;4923;52.520;13.494;2023-11-21T00:53:32;43.33;;;16.48;;
9767;SDS011;4923;52.520;13.494;2023-11-21T00:56:19;41.92;;;16.33;;
9767;SDS011;4923;52.520;13.494;2023-11-21T00:59:05;45.22;;;18.58;;
9767;SDS011;4923;52.520;13.494;2023-11-21T01:01:52;34.72;;;14.70;;
9767;SDS011;4923;52.520;13.494;2023-11-21T01:04:39;36.78;;;15.20;;
9767;SDS011;4923;52.520;13.494;2023-11-21T01:07:26;37.15;;;16.15;;
9767;SDS011;4923;52.520;13.494;2023-11-21T01:10:14;42.60;;;15.50;;
9767;SDS011;4923;52.520;13.494;2023-11-21T01:13:02;44.17;;;17.10;;
9767;SDS011;4923;52.520;13.494;2023-11-21T01:15:51;48.83;;;17.13;;
9767;SDS011;4923;52.520;13.494;2023-11-21T01:18:37;56.15;;;18.73;;
9767;SDS011;4923;52.520;13.494;2023-11-21T01:21:24;52.05;;;18.92;;
9767;SDS011;4923;52.520;13.494;2023-11-21T01:24:11;53.40;;;20.13;;
9767;SDS011;4923;52.520;13.494;2023-11-21T01:26:59;51.28;;;19.92;;
9767;SDS011;4923;52.520;13.494;2023-11-21T01:29:46;60.63;;;21.85;;
9767;SDS011;4923;52.520;13.494;2023-11-21T01:32:33;54.03;;;20.30;;
9767;SDS011;4923;52.520;13.494;2023-11-21T01:35:20;57.08;;;19.92;;
9767;SDS011;4923;52.520;13.494;2023-11-21T01:38:07;52.08;;;21.08;;
9767;SDS011;4923;52.520;13.494;2023-11-21T01:40:54;65.28;;;22.35;;
9767;SDS011;4923;52.520;13.494;2023-11-21T01:43:42;65.68;;;23.55;;
9767;SDS011;4923;52.520;13.494;2023-11-21T01:46:29;72.72;;;22.50;;
9767;SDS011;4923;52.520;13.494;2023-11-21T01:49:16;67.43;;;22.38;;
9767;SDS011;4923;52.520;13.494;2023-11-21T01:52:03;63.47;;;21.42;;
9767;SDS011;4923;52.520;13.494;2023-11-21T01:54:50;66.13;;;24.30;;
9767;SDS011;4923;52.520;13.494;2023-11-21T01:57:38;68.35;;;22.05;;
9767;SDS011;4923;52.520;13.494;2023-11-21T02:00:26;67.50;;;21.17;;
9767;SDS011;4923;52.520;13.494;2023-11-21T02:03:14;62.78;;;21.95;;
9767;SDS011;4923;52.520;13.494;2023-11-21T02:06:01;54.28;;;18.67;;
9767;SDS011;4923;52.520;13.494;2023-11-21T02:08:49;67.63;;;18.50;;
9767;SDS011;4923;52.520;13.494;2023-11-21T02:11:35;51.65;;;16.67;;
9767;SDS011;4923;52.520;13.494;2023-11-21T02:14:24;47.10;;;16.80;;
9767;SDS011;4923;52.520;13.494;2023-11-21T02:17:14;50.45;;;14.70;;
9767;SDS011;4923;52.520;13.494;2023-11-21T02:20:03;37.92;;;13.93;;
9767;SDS011;4923;52.520;13.494;2023-11-21T02:22:53;50.65;;;14.57;;
9767;SDS011;4923;52.520;13.494;2023-11-21T02:25:43;28.77;;;12.35;;
9767;SDS011;4923;52.520;13.494;2023-11-21T02:28:30;37.63;;;12.52;;
9767;SDS011;4923;52.520;13.494;2023-11-21T02:31:18;32.90;;;12.32;;
9767;SDS011;4923;52.520;13.494;2023-11-21T02:34:05;39.80;;;12.48;;
9767;SDS011;4923;52.520;13.494;2023-11-21T02:36:51;29.63;;;10.57;;
9767;SDS011;4923;52.520;13.494;2023-11-21T02:39:40;26.63;;;10.75;;
9767;SDS011;4923;52.520;13.494;2023-11-21T02:42:27;20.77;;;9.77;;
9767;SDS011;4923;52.520;13.494;2023-11-21T02:45:14;18.45;;;8.40;;
9767;SDS011;4923;52.520;13.494;2023-11-21T02:48:02;17.33;;;8.15;;
9767;SDS011;4923;52.520;13.494;2023-11-21T02:50:49;14.05;;;7.28;;
9767;SDS011;4923;52.520;13.494;2023-11-21T02:53:38;18.23;;;8.63;;
9767;SDS011;4923;52.520;13.494;2023-11-21T02:56:26;12.88;;;8.40;;
9767;SDS011;4923;52.520;13.494;2023-11-21T02:59:13;16.02;;;9.30;;
9767;SDS011;4923;52.520;13.494;2023-11-21T03:02:00;14.95;;;7.65;;
9767;SDS011;4923;52.520;13.494;2023-11-21T03:04:47;13.70;;;8.20;;
9767;SDS011;4923;52.520;13.494;2023-11-21T03:07:34;16.27;;;8.70;;
9767;SDS011;4923;52.520;13.494;2023-11-21T03:10:22;12.07;;;7.47;;
9767;SDS011;4923;52.520;13.494;2023-11-21T03:13:10;10.82;;;8.10;;
9767;SDS011;4923;52.520;13.494;2023-11-21T03:15:57;8.45;;;6.95;;
9767;SDS011;4923;52.520;13.494;2023-11-21T03:18:45;8.60;;;7.15;;
9767;SDS011;4923;52.520;13.494;2023-11-21T03:21:32;7.20;;;6.30;;
9767;SDS011;4923;52.520;13.494;2023-11-21T03:24:18;6.80;;;5.85;;
9767;SDS011;4923;52.520;13.494;2023-11-21T03:27:07;7.55;;;6.35;;
9767;SDS011;4923;52.520;13.494;2023-11-21T03:29:55;7.85;;;6.28;;
9767;SDS011;4923;52.520;13.494;2023-11-21T03:32:42;10.45;;;7.07;;
9767;SDS011;4923;52.520;13.494;2023-11-21T03:35:29;7.53;;;6.50;;
9767;SDS011;4923;52.520;13.494;2023-11-21T03:38:16;8.10;;;6.03;;
9767;SDS011;4923;52.520;13.494;2023-11-21T03:41:04;6.38;;;5.38;;
9767;SDS011;4923;52.520;13.494;2023-11-21T03:43:51;6.13;;;5.53;;
9767;SDS011;4923;52.520;13.494;2023-11-21T03:46:39;7.82;;;6.55;;
9767;SDS011;4923;52.520;13.494;2023-11-21T03:49:26;6.63;;;5.90;;
9767;SDS011;4923;52.520;13.494;2023-11-21T03:52:14;5.50;;;5.00;;
9767;SDS011;4923;52.520;13.494;2023-11-21T03:55:01;8.27;;;5.75;;
9767;SDS011;4923;52.520;13.494;2023-11-21T03:57:48;5.70;;;5.20;;
9767;SDS011;4923;52.520;13.494;2023-11-21T04:00:35;9.05;;;6.20;;
9767;SDS011;4923;52.520;13.494;2023-11-21T04:03:23;5.38;;;4.97;;
9767;SDS011;4923;52.520;13.494;2023-11-21T04:06:10;8.57;;;5.57;;
9767;SDS011;4923;52.520;13.494;2023-11-21T04:08:57;5.75;;;5.07;;
9767;SDS011;4923;52.520;13.494;2023-11-21T04:11:44;5.35;;;4.95;;
9767;SDS011;4923;52.520;13.494;2023-11-21T04:14:31;5.50;;;5.00;;
9767;SDS011;4923;52.520;13.494;2023-11-21T04:17:18;6.65;;;5.72;;
9767;SDS011;4923;52.520;13.494;2023-11-21T04:20:07;6.55;;;5.30;;
9767;SDS011;4923;52.520;13.494;2023-11-21T04:22:55;5.20;;;4.80;;
9767;SDS011;4923;52.520;13.494;2023-11-21T04:25:42;6.55;;;5.03;;
9767;SDS011;4923;52.520;13.494;2023-11-21T04:28:29;7.50;;;5.95;;
9767;SDS011;4923;52.520;13.494;2023-11-21T04:31:16;4.68;;;4.28;;
9767;SDS011;4923;52.520;13.494;2023-11-21T04:34:03;4.72;;;4.43;;
9767;SDS011;4923;52.520;13.494;2023-11-21T04:36:51;4.65;;;4.25;;
9767;SDS011;4923;52.520;13.494;2023-11-21T04:39:38;5.30;;;4.80;;
9767;SDS011;4923;52.520;13.494;2023-11-21T04:42:25;4.00;;;3.70;;
9767;SDS011;4923;52.520;13.494;2023-11-21T04:45:12;4.53;;;4.13;;
9767;SDS011;4923;52.520;13.494;2023-11-21T04:47:59;6.25;;;4.45;;
9767;SDS011;4923;52.520;13.494;2023-11-21T04:50:46;5.00;;;4.43;;
9767;SDS011;4923;52.520;13.494;2023-11-21T04:53:34;4.15;;;3.85;;
9767;SDS011;4923;52.520;13.494;2023-11-21T04:56:21;4.20;;;3.90;;
9767;SDS011;4923;52.520;13.494;2023-11-21T04:59:08;4.72;;;4.35;;
9767;SDS011;4923;52.520;13.494;2023-11-21T05:01:55;4.70;;;4.30;;
9767;SDS011;4923;52.520;13.494;2023-11-21T05:04:42;4.60;;;3.90;;
9767;SDS011;4923;52.520;13.494;2023-11-21T05:07:29;3.88;;;3.58;;
9767;SDS011;4923;52.520;13.494;2023-11-21T05:10:17;3.03;;;2.83;;
9767;SDS011;4923;52.520;13.494;2023-11-21T05:13:04;4.55;;;3.33;;
9767;SDS011;4923;52.520;13.494;2023-11-21T05:15:55;3.08;;;2.92;;
9767;SDS011;4923;52.520;13.494;2023-11-21T05:18:42;6.03;;;3.60;;
9767;SDS011;4923;52.520;13.494;2023-11-21T05:21:29;3.60;;;3.40;;
9767;SDS011;4923;52.520;13.494;2023-11-21T05:24:17;3.22;;;2.90;;
9767;SDS011;4923;52.520;13.494;2023-11-21T05:27:05;3.72;;;3.17;;
9767;SDS011;4923;52.520;13.494;2023-11-21T05:29:52;3.50;;;3.30;;
9767;SDS011;4923;52.520;13.494;2023-11-21T05:32:39;4.82;;;3.28;;
9767;SDS011;4923;52.520;13.494;2023-11-21T05:35:27;4.32;;;3.13;;
9767;SDS011;4923;52.520;13.494;2023-11-21T05:38:14;5.05;;;3.13;;
9767;SDS011;4923;52.520;13.494;2023-11-21T05:41:01;3.95;;;3.65;;
9767;SDS011;4923;52.520;13.494;2023-11-21T05:43:50;3.35;;;3.15;;
9767;SDS011;4923;52.520;13.494;2023-11-21T05:46:39;5.85;;;3.88;;
9767;SDS011;4923;52.520;13.494;2023-11-21T05:49:28;3.20;;;3.05;;
9767;SDS011;4923;52.520;13.494;2023-11-21T05:52:15;3.13;;;2.92;;
9767;SDS011;4923;52.520;13.494;2023-11-21T05:55:02;3.05;;;2.95;;
9767;SDS011;4923;52.520;13.494;2023-11-21T05:57:50;3.30;;;3.03;;
9767;SDS011;4923;52.520;13.494;2023-11-21T06:00:38;3.10;;;2.80;;
9767;SDS011;4923;52.520;13.494;2023-11-21T06:03:25;2.80;;;2.60;;
9767;SDS011;4923;52.520;13.494;2023-11-21T06:06:11;2.88;;;2.53;;
9767;SDS011;4923;52.520;13.494;2023-11-21T06:08:58;2.65;;;2.45;;
9767;SDS011;4923;52.520;13.494;2023-11-21T06:11:45;2.80;;;2.70;;
9767;SDS011;4923;52.520;13.494;2023-11-21T06:14:32;3.30;;;3.13;;
9767;SDS011;4923;52.520;13.494;2023-11-21T06:17:21;2.45;;;2.25;;
9767;SDS011;4923;52.520;13.494;2023-11-21T06:20:10;3.08;;;2.88;;
9767;SDS011;4923;52.520;13.494;2023-11-21T06:22:59;3.50;;;3.20;;
9767;SDS011;4923;52.520;13.494;2023-11-21T06:25:48;1.85;;;1.85;;
9767;SDS011;4923;52.520;13.494;2023-11-21T06:28:35;3.17;;;2.97;;
9767;SDS011;4923;52.520;13.494;2023-11-21T06:31:22;2.17;;;2.08;;
9767;SDS011;4923;52.520;13.494;2023-11-21T06:34:10;5.43;;;3.25;;
9767;SDS011;4923;52.520;13.494;2023-11-21T06:36:57;3.65;;;3.35;;
9767;SDS011;4923;52.520;13.494;2023-11-21T06:39:44;3.17;;;2.97;;
9767;SDS011;4923;52.520;13.494;2023-11-21T06:42:31;3.22;;;3.03;;
9767;SDS011;4923;52.520;13.494;2023-11-21T06:45:18;4.05;;;3.72;;
9767;SDS011;4923;52.520;13.494;2023-11-21T06:48:06;5.75;;;4.55;;
9767;SDS011;4923;52.520;13.494;2023-11-21T06:50:55;3.60;;;3.40;;
9767;SDS011;4923;52.520;13.494;2023-11-21T06:53:42;3.00;;;2.75;;
9767;SDS011;4923;52.520;13.494;2023-11-21T06:56:28;3.88;;;3.67;;
9767;SDS011;4923;52.520;13.494;2023-11-21T06:59:16;3.17;;;2.97;;
9767;SDS011;4923;52.520;13.494;2023-11-21T07:02:03;3.13;;;2.92;;
9767;SDS011;4923;52.520;13.494;2023-11-21T07:04:51;4.85;;;3.70;;
9767;SDS011;4923;52.520;13.494;2023-11-21T07:07:39;15.30;;;3.30;;
9767;SDS011;4923;52.520;13.494;2023-11-21T07:10:26;2.97;;;2.85;;
9767;SDS011;4923;52.520;13.494;2023-11-21T07:13:13;4.30;;;3.95;;
9767;SDS011;4923;52.520;13.494;2023-11-21T07:16:00;2.70;;;2.60;;
9767;SDS011;4923;52.520;13.494;2023-11-21T07:18:47;3.15;;;3.03;;
9767;SDS011;4923;52.520;13.494;2023-11-21T07:21:34;3.28;;;3.08;;
9767;SDS011;4923;52.520;13.494;2023-11-21T07:24:23;3.08;;;2.80;;
9767;SDS011;4923;52.520;13.494;2023-11-21T07:27:10;2.65;;;2.50;;
9767;SDS011;4923;52.520;13.494;2023-11-21T07:29:57;2.22;;;2.13;;
9767;SDS011;4923;52.520;13.494;2023-11-21T07:32:44;2.38;;;2.28;;
9767;SDS011;4923;52.520;13.494;2023-11-21T07:35:33;2.50;;;2.30;;
9767;SDS011;4923;52.520;13.494;2023-11-21T07:38:20;2.10;;;2.00;;
9767;SDS011;4923;52.520;13.494;2023-11-21T07:41:08;3.03;;;2.83;;
9767;SDS011;4923;52.520;13.494;2023-11-21T07:43:55;2.42;;;2.22;;
9767;SDS011;4923;52.520;13.494;2023-11-21T07:46:43;3.90;;;2.20;;
9767;SDS011;4923;52.520;13.494;2023-11-21T07:49:30;4.30;;;2.28;;
9767;SDS011;4923;52.520;13.494;2023-11-21T07:52:17;2.83;;;2.40;;
9767;SDS011;4923;52.520;13.494;2023-11-21T07:55:06;2.85;;;2.65;;
9767;SDS011;4923;52.520;13.494;2023-11-21T07:57:55;4.45;;;2.58;;
9767;SDS011;4923;52.520;13.494;2023-11-21T08:00:42;4.18;;;2.92;;
9767;SDS011;4923;52.520;13.494;2023-11-21T08:03:28;6.05;;;3.58;;
9767;SDS011;4923;52.520;13.494;2023-11-21T08:06:15;10.15;;;4.07;;
9767;SDS011;4923;52.520;13.494;2023-11-21T08:09:02;5.20;;;3.40;;
9767;SDS011;4923;52.520;13.494;2023-11-21T08:11:49;7.75;;;4.22;;
9767;SDS011;4923;52.520;13.494;2023-11-21T08:14:38;7.00;;;3.60;;
9767;SDS011;4923;52.520;13.494;2023-11-21T08:17:26;8.13;;;3.38;;
9767;SDS011;4923;52.520;13.494;2023-11-21T08:20:12;10.40;;;4.68;;
9767;SDS011;4923;52.520;13.494;2023-11-21T08:23:01;10.63;;;4.95;;
9767;SDS011;4923;52.520;13.494;2023-11-21T08:25:48;12.07;;;5.35;;
9767;SDS011;4923;52.520;13.494;2023-11-21T08:28:35;18.42;;;5.72;;
9767;SDS011;4923;52.520;13.494;2023-11-21T08:31:26;11.05;;;4.18;;
9767;SDS011;4923;52.520;13.494;2023-11-21T08:34:13;9.23;;;4.68;;
9767;SDS011;4923;52.520;13.494;2023-11-21T08:37:00;7.13;;;4.32;;
9767;SDS011;4923;52.520;13.494;2023-11-21T08:39:47;9.82;;;4.93;;
9767;SDS011;4923;52.520;13.494;2023-11-21T08:42:34;13.88;;;5.13;;
9767;SDS011;4923;52.520;13.494;2023-11-21T08:45:21;13.23;;;5.28;;
9767;SDS011;4923;52.520;13.494;2023-11-21T08:48:09;9.73;;;5.13;;
9767;SDS011;4923;52.520;13.494;2023-11-21T08:50:56;11.07;;;5.45;;
9767;SDS011;4923;52.520;13.494;2023-11-21T08:53:44;7.68;;;4.82;;
9767;SDS011;4923;52.520;13.494;2023-11-21T08:56:31;12.95;;;5.00;;
9767;SDS011;4923;52.520;13.494;2023-11-21T08:59:18;17.02;;;5.35;;
9767;SDS011;4923;52.520;13.494;2023-11-21T09:02:05;13.88;;;5.13;;
9767;SDS011;4923;52.520;13.494;2023-11-21T09:04:54;9.32;;;4.15;;
9767;SDS011;4923;52.520;13.494;2023-11-21T09:07:41;10.82;;;5.75;;
9767;SDS011;4923;52.520;13.494;2023-11-21T09:10:28;13.60;;;4.85;;
9767;SDS011;4923;52.520;13.494;2023-11-21T09:13:15;5.95;;;3.40;;
9767;SDS011;4923;52.520;13.494;2023-11-21T09:16:02;11.90;;;4.35;;
9767;SDS011;4923;52.520;13.494;2023-11-21T09:18:49;5.82;;;3.38;;
9767;SDS011;4923;52.520;13.494;2023-11-21T09:21:37;7.55;;;3.25;;
9767;SDS011;4923;52.520;13.494;2023-11-21T09:24:24;3.42;;;2.42;;
9767;SDS011;4923;52.520;13.494;2023-11-21T09:27:11;1.73;;;1.63;;
9767;SDS011;4923;52.520;13.494;2023-11-21T09:29:58;2.60;;;1.60;;
9767;SDS011;4923;52.520;13.494;2023-11-21T09:32:45;2.67;;;1.70;;
9767;SDS011;4923;52.520;13.494;2023-11-21T09:35:32;3.95;;;1.80;;
9767;SDS011;4923;52.520;13.494;2023-11-21T09:38:20;1.20;;;1.10;;
9767;SDS011;4923;52.520;13.494;2023-11-21T09:41:08;1.20;;;1.10;;
9767;SDS011;4923;52.520;13.494;2023-11-21T09:44:02;1.52;;;1.38;;
9767;SDS011;4923;52.520;13.494;2023-11-21T09:46:52;1.52;;;1.42;;
9767;SDS011;4923;52.520;13.494;2023-11-21T09:49:40;1.30;;;1.05;;
9767;SDS011;4923;52.520;13.494;2023-11-21T09:52:27;4.43;;;1.00;;
9767;SDS011;4923;52.520;13.494;2023-11-21T09:55:17;2.20;;;1.08;;
9767;SDS011;4923;52.520;13.494;2023-11-21T09:58:06;1.58;;;0.80;;
9767;SDS011;4923;52.520;13.494;2023-11-21T10:00:57;1.15;;;1.05;;
9767;SDS011;4923;52.520;13.494;2023-11-21T10:03:45;2.50;;;0.90;;
9767;SDS011;4923;52.520;13.494;2023-11-21T10:06:32;0.60;;;0.60;;
9767;SDS011;4923;52.520;13.494;2023-11-21T10:09:20;0.73;;;0.73;;
9767;SDS011;4923;52.520;13.494;2023-11-21T10:12:10;0.60;;;0.60;;
9767;SDS011;4923;52.520;13.494;2023-11-21T10:14:59;0.60;;;0.60;;
9767;SDS011;4923;52.520;13.494;2023-11-21T10:17:50;0.95;;;0.60;;
9767;SDS011;4923;52.520;13.494;2023-11-21T10:20:38;0.70;;;0.70;;
9767;SDS011;4923;52.520;13.494;2023-11-21T10:23:25;0.82;;;0.82;;
9767;SDS011;4923;52.520;13.494;2023-11-21T10:26:13;0.60;;;0.60;;
9767;SDS011;4923;52.520;13.494;2023-11-21T10:29:02;0.70;;;0.70;;
9767;SDS011;4923;52.520;13.494;2023-11-21T10:31:50;0.70;;;0.70;;
9767;SDS011;4923;52.520;13.494;2023-11-21T10:34:38;0.95;;;0.95;;
9767;SDS011;4923;52.520;13.494;2023-11-21T10:37:26;1.00;;;0.90;;
9767;SDS011;4923;52.520;13.494;2023-11-21T10:40:13;0.80;;;0.80;;
9767;SDS011;4923;52.520;13.494;2023-11-21T10:43:05;1.13;;;1.13;;
9767;SDS011;4923;52.520;13.494;2023-11-21T10:45:54;2.00;;;1.90;;
9767;SDS011;4923;52.520;13.494;2023-11-21T10:48:44;1.05;;;1.05;;
9767;SDS011;4923;52.520;13.494;2023-11-21T10:51:32;0.90;;;0.90;;
9767;SDS011;4923;52.520;13.494;2023-11-21T10:54:19;1.55;;;1.48;;
9767;SDS011;4923;52.520;13.494;2023-11-21T10:57:07;3.28;;;1.40;;
9767;SDS011;4923;52.520;13.494;2023-11-21T10:59:54;1.00;;;1.00;;
9767;SDS011;4923;52.520;13.494;2023-11-21T11:02:42;2.25;;;1.50;;
9767;SDS011;4923;52.520;13.494;2023-11-21T11:05:29;1.35;;;1.35;;
9767;SDS011;4923;52.520;13.494;2023-11-21T11:08:17;1.98;;;1.88;;
9767;SDS011;4923;52.520;13.494;2023-11-21T11:11:11;1.80;;;1.70;;
9767;SDS011;4923;52.520;13.494;2023-11-21T11:13:59;1.00;;;1.00;;
9767;SDS011;4923;52.520;13.494;2023-11-21T11:16:46;4.85;;;1.20;;
9767;SDS011;4923;52.520;13.494;2023-11-21T11:19:36;0.98;;;0.98;;
9767;SDS011;4923;52.520;13.494;2023-11-21T11:22:28;1.67;;;1.55;;
9767;SDS011;4923;52.520;13.494;2023-11-21T11:25:25;1.73;;;1.63;;
9767;SDS011;4923;52.520;13.494;2023-11-21T11:28:21;1.60;;;1.60;;
9767;SDS011;4923;52.520;13.494;2023-11-21T11:31:14;1.40;;;1.30;;
9767;SDS011;4923;52.520;13.494;2023-11-21T11:34:16;2.53;;;2.35;;
9767;SDS011;4923;52.520;13.494;2023-11-21T11:37:10;2.10;;;2.00;;
9767;SDS011;4923;52.520;13.494;2023-11-21T11:39:58;1.95;;;1.85;;
9767;SDS011;4923;52.520;13.494;2023-11-21T11:42:55;1.60;;;1.60;;
9767;SDS011;4923;52.520;13.494;2023-11-21T11:45:44;1.75;;;1.65;;
9767;SDS011;4923;52.520;13.494;2023-11-21T11:48:37;1.25;;;1.25;;
9767;SDS011;4923;52.520;13.494;2023-11-21T11:51:25;2.17;;;1.00;;
9767;SDS011;4923;52.520;13.494;2023-11-21T11:54:13;4.15;;;1.35;;
9767;SDS011;4923;52.520;13.494;2023-11-21T11:57:02;0.95;;;0.95;;
9767;SDS011;4923;52.520;13.494;2023-11-21T12:00:06;2.25;;;1.00;;
9767;SDS011;4923;52.520;13.494;2023-11-21T12:03:01;1.00;;;1.00;;
9767;SDS011;4923;52.520;13.494;2023-11-21T12:05:49;1.30;;;0.95;;
9767;SDS011;4923;52.520;13.494;2023-11-21T12:08:40;1.02;;;1.02;;
9767;SDS011;4923;52.520;13.494;2023-11-21T12:11:31;0.88;;;0.88;;
9767;SDS011;4923;52.520;13.494;2023-11-21T12:14:20;1.10;;;1.10;;
9767;SDS011;4923;52.520;13.494;2023-11-21T12:17:08;4.82;;;1.10;;
9767;SDS011;4923;52.520;13.494;2023-11-21T12:20:00;1.08;;;1.08;;
9767;SDS011;4923;52.520;13.494;2023-11-21T12:22:50;1.05;;;0.95;;
9767;SDS011;4923;52.520;13.494;2023-11-21T12:25:39;0.88;;;0.88;;
9767;SDS011;4923;52.520;13.494;2023-11-21T12:28:28;0.95;;;0.95;;
9767;SDS011;4923;52.520;13.494;2023-11-21T12:31:14;1.02;;;1.02;;
9767;SDS011;4923;52.520;13.494;2023-11-21T12:34:01;2.40;;;1.10;;
9767;SDS011;4923;52.520;13.494;2023-11-21T12:39:19;1.15;;;1.15;;
9767;SDS011;4923;52.520;13.494;2023-11-21T12:42:08;1.52;;;1.40;;
9767;SDS011;4923;52.520;13.494;2023-11-21T12:45:06;1.10;;;1.00;;
9767;SDS011;4923;52.520;13.494;2023-11-21T12:48:05;2.25;;;0.80;;
9767;SDS011;4923;52.520;13.494;2023-11-21T12:50:35;1.05;;;1.05;;
9767;SDS011;4923;52.520;13.494;2023-11-21T12:53:24;5.35;;;1.80;;
9767;SDS011;4923;52.520;13.494;2023-11-21T12:56:18;1.13;;;1.13;;
9767;SDS011;4923;52.520;13.494;2023-11-21T12:59:09;1.10;;;1.10;;
9767;SDS011;4923;52.520;13.494;2023-11-21T13:01:58;1.70;;;1.70;;
9767;SDS011;4923;52.520;13.494;2023-11-21T13:04:51;2.05;;;1.00;;
9767;SDS011;4923;52.520;13.494;2023-11-21T13:07:40;0.88;;;0.88;;
9767;SDS011;4923;52.520;13.494;2023-11-21T13:10:34;2.15;;;1.30;;
9767;SDS011;4923;52.520;13.494;2023-11-21T13:13:22;0.93;;;0.93;;
9767;SDS011;4923;52.520;13.494;2023-11-21T13:16:10;1.23;;;1.23;;
9767;SDS011;4923;52.520;13.494;2023-11-21T13:18:58;1.63;;;1.63;;
9767;SDS011;4923;52.520;13.494;2023-11-21T13:21:45;1.40;;;1.40;;
9767;SDS011;4923;52.520;13.494;2023-11-21T13:24:31;8.57;;;1.20;;
9767;SDS011;4923;52.520;13.494;2023-11-21T13:27:19;1.60;;;1.60;;
9767;SDS011;4923;52.520;13.494;2023-11-21T13:30:07;1.95;;;1.83;;
9767;SDS011;4923;52.520;13.494;2023-11-21T13:32:54;2.80;;;2.70;;
9767;SDS011;4923;52.520;13.494;2023-11-21T13:35:47;2.95;;;2.75;;
9767;SDS011;4923;52.520;13.494;2023-11-21T13:38:36;2.40;;;2.17;;
9767;SDS011;4923;52.520;13.494;2023-11-21T13:41:27;2.85;;;2.75;;
9767;SDS011;4923;52.520;13.494;2023-11-21T13:44:17;2.80;;;2.60;;
9767;SDS011;4923;52.520;13.494;2023-11-21T13:47:11;2.42;;;2.33;;
9767;SDS011;4923;52.520;13.494;2023-11-21T13:49:58;4.90;;;2.83;;
9767;SDS011;4923;52.520;13.494;2023-11-21T13:52:45;3.00;;;2.90;;
9767;SDS011;4923;52.520;13.494;2023-11-21T13:55:32;2.88;;;2.70;;
9767;SDS011;4923;52.520;13.494;2023-11-21T13:58:21;3.38;;;3.08;;
9767;SDS011;4923;52.520;13.494;2023-11-21T14:01:13;4.57;;;3.17;;
9767;SDS011;4923;52.520;13.494;2023-11-21T14:04:20;3.28;;;3.05;;
9767;SDS011;4923;52.520;13.494;2023-11-21T14:07:21;4.57;;;3.67;;
9767;SDS011;4923;52.520;13.494;2023-11-21T14:10:15;4.53;;;4.10;;
9767;SDS011;4923;52.520;13.494;2023-11-21T14:13:07;4.65;;;4.35;;
9767;SDS011;4923;52.520;13.494;2023-11-21T14:15:55;5.00;;;4.60;;
9767;SDS011;4923;52.520;13.494;2023-11-21T14:18:47;5.68;;;5.18;;
9767;SDS011;4923;52.520;13.494;2023-11-21T14:21:41;7.80;;;6.28;;
9767;SDS011;4923;52.520;13.494;2023-11-21T14:24:29;9.73;;;7.07;;
9767;SDS011;4923;52.520;13.494;2023-11-21T14:27:16;8.50;;;6.85;;
9767;SDS011;4923;52.520;13.494;2023-11-21T14:30:03;9.95;;;7.53;;
9767;SDS011;4923;52.520;13.494;2023-11-21T14:32:50;10.95;;;6.82;;
9767;SDS011;4923;52.520;13.494;2023-11-21T14:35:38;13.18;;;8.20;;
9767;SDS011;4923;52.520;13.494;2023-11-21T14:38:25;11.23;;;7.85;;
9767;SDS011;4923;52.520;13.494;2023-11-21T14:41:13;9.10;;;6.65;;
9767;SDS011;4923;52.520;13.494;2023-11-21T14:44:00;10.95;;;8.07;;
9767;SDS011;4923;52.520;13.494;2023-11-21T14:46:48;11.32;;;8.57;;
9767;SDS011;4923;52.520;13.494;2023-11-21T14:49:35;12.05;;;9.13;;
9767;SDS011;4923;52.520;13.494;2023-11-21T14:52:38;10.23;;;7.93;;
9767;SDS011;4923;52.520;13.494;2023-11-21T14:55:38;14.18;;;9.18;;
9767;SDS011;4923;52.520;13.494;2023-11-21T14:58:38;11.63;;;8.57;;
9767;SDS011;4923;52.520;13.494;2023-11-21T15:01:25;10.45;;;8.63;;
9767;SDS011;4923;52.520;13.494;2023-11-21T15:04:30;15.05;;;10.02;;
9767;SDS011;4923;52.520;13.494;2023-11-21T15:07:21;12.90;;;9.15;;
9767;SDS011;4923;52.520;13.494;2023-11-21T15:10:13;16.88;;;9.90;;
9767;SDS011;4923;52.520;13.494;2023-11-21T15:13:00;10.82;;;7.80;;
9767;SDS011;4923;52.520;13.494;2023-11-21T15:15:48;9.05;;;7.25;;
9767;SDS011;4923;52.520;13.494;2023-11-21T15:18:34;11.25;;;8.50;;
9767;SDS011;4923;52.520;13.494;2023-11-21T15:21:21;10.98;;;8.07;;
9767;SDS011;4923;52.520;13.494;2023-11-21T15:24:09;9.05;;;7.10;;
9767;SDS011;4923;52.520;13.494;2023-11-21T15:26:58;7.32;;;6.65;;
9767;SDS011;4923;52.520;13.494;2023-11-21T15:29:45;10.20;;;7.60;;
9767;SDS011;4923;52.520;13.494;2023-11-21T15:32:32;8.73;;;7.05;;
9767;SDS011;4923;52.520;13.494;2023-11-21T15:35:19;12.43;;;7.45;;
9767;SDS011;4923;52.520;13.494;2023-11-21T15:38:06;6.38;;;5.13;;
9767;SDS011;4923;52.520;13.494;2023-11-21T15:40:54;11.57;;;5.53;;
9767;SDS011;4923;52.520;13.494;2023-11-21T15:43:45;7.93;;;6.13;;
9767;SDS011;4923;52.520;13.494;2023-11-21T15:46:34;6.03;;;5.43;;
9767;SDS011;4923;52.520;13.494;2023-11-21T15:49:22;6.78;;;5.93;;
9767;SDS011;4923;52.520;13.494;2023-11-21T15:52:09;10.35;;;6.70;;
9767;SDS011;4923;52.520;13.494;2023-11-21T15:54:57;5.82;;;5.32;;
9767;SDS011;4923;52.520;13.494;2023-11-21T15:57:43;8.00;;;5.50;;
9767;SDS011;4923;52.520;13.494;2023-11-21T16:00:32;7.88;;;6.20;;
9767;SDS011;4923;52.520;13.494;2023-11-21T16:03:19;5.93;;;5.30;;
9767;SDS011;4923;52.520;13.494;2023-11-21T16:06:07;9.70;;;5.35;;
9767;SDS011;4923;52.520;13.494;2023-11-21T16:08:55;7.55;;;6.07;;
9767;SDS011;4923;52.520;13.494;2023-11-21T16:11:43;7.05;;;5.18;;
9767;SDS011;4923;52.520;13.494;2023-11-21T16:14:30;5.47;;;4.97;;
9767;SDS011;4923;52.520;13.494;2023-11-21T16:17:22;9.88;;;5.93;;
9767;SDS011;4923;52.520;13.494;2023-11-21T16:20:09;5.25;;;4.68;;
9767;SDS011;4923;52.520;13.494;2023-11-21T16:22:59;4.78;;;4.32;;
9767;SDS011;4923;52.520;13.494;2023-11-21T16:25:46;5.13;;;4.40;;
9767;SDS011;4923;52.520;13.494;2023-11-21T16:28:40;5.45;;;4.45;;
9767;SDS011;4923;52.520;13.494;2023-11-21T16:31:27;5.65;;;4.40;;
9767;SDS011;4923;52.520;13.494;2023-11-21T16:34:15;4.50;;;4.13;;
9767;SDS011;4923;52.520;13.494;2023-11-21T16:37:04;5.80;;;4.00;;
9767;SDS011;4923;52.520;13.494;2023-11-21T16:39:52;4.95;;;4.50;;
9767;SDS011;4923;52.520;13.494;2023-11-21T16:42:39;4.55;;;3.40;;
9767;SDS011;4923;52.520;13.494;2023-11-21T16:45:26;8.85;;;2.95;;
9767;SDS011;4923;52.520;13.494;2023-11-21T16:48:12;5.05;;;4.60;;
9767;SDS011;4923;52.520;13.494;2023-11-21T16:51:00;5.80;;;4.50;;
9767;SDS011;4923;52.520;13.494;2023-11-21T16:53:47;9.63;;;4.05;;
9767;SDS011;4923;52.520;13.494;2023-11-21T16:56:34;4.28;;;3.92;;
9767;SDS011;4923;52.520;13.494;2023-11-21T16:59:22;5.75;;;4.68;;
9767;SDS011;4923;52.520;13.494;2023-11-21T17:02:09;7.13;;;4.93;;
9767;SDS011;4923;52.520;13.494;2023-11-21T17:04:56;4.25;;;3.72;;